Time;durP1;ratioP1;P1;durP2;ratioP2;P2;SDS_P1;SDS_P2;PMS_P1;PMS_P2;Temp;Humidity;BMP_temperature;BMP_pressure;BME280_temperature;BME280_humidity;BME280_pressure;Samples;Min_cycle;Max_cycle;Signal;HPM_P1;HPM_P2
2022/04/09 00:02:29;;;;;;;;;16.80;16.60;;;;;;;;5232982;28;8782;-72
2022/04/09 00:05:19;;;;;;;;;20.40;18.20;;;;;;;;5235291;28;8798;-70
2022/04/09 00:07:50;;;;;;;;;18.00;18.00;;;;;;;;5249390;28;8786;-69
2022/04/09 00:10:21;;;;;;;;;21.60;20.80;;;;;;;;5267117;28;8855;-69
2022/04/09 00:12:53;;;;;;;;;21.00;21.00;;;;;;;;5216171;28;8779;-69
2022/04/09 00:15:24;;;;;;;;;27.00;26.60;;;;;;;;5232148;28;8854;-69
2022/04/09 00:17:56;;;;;;;;;28.40;28.40;;;;;;;;5216093;28;8843;-69
2022/04/09 00:20:46;;;;;;;;;30.20;30.00;;;;;;;;5249336;28;9524;-69
2022/04/09 00:23:18;;;;;;;;;40.00;38.00;;;;;;;;5232785;28;8787;-69
2022/04/09 00:25:50;;;;;;;;;41.80;40.20;;;;;;;;5251453;28;8836;-69
2022/04/09 00:28:21;;;;;;;;;35.40;35.40;;;;;;;;5220120;28;8793;-69
2022/04/09 00:31:11;;;;;;;;;38.80;36.60;;;;;;;;5271046;28;9529;-71
2022/04/09 00:33:42;;;;;;;;;39.60;36.40;;;;;;;;5236220;28;8810;-70
2022/04/09 00:36:13;;;;;;;;;33.00;32.60;;;;;;;;5253135;28;8822;-70
2022/04/09 00:38:45;;;;;;;;;36.60;36.60;;;;;;;;5253225;28;8770;-69
2022/04/09 00:41:17;;;;;;;;;37.00;36.60;;;;;;;;5270747;28;8810;-69
2022/04/09 00:43:49;;;;;;;;;34.40;33.80;;;;;;;;5236528;28;8782;-69
2022/04/09 00:46:20;;;;;;;;;28.80;28.20;;;;;;;;5236978;28;8787;-69
2022/04/09 00:48:52;;;;;;;;;29.80;29.80;;;;;;;;5236324;28;8770;-70
2022/04/09 00:51:24;;;;;;;;;25.40;23.80;;;;;;;;5251962;28;8794;-68
2022/04/09 00:53:56;;;;;;;;;26.60;26.60;;;;;;;;5236019;28;8790;-68
2022/04/09 00:56:29;;;;;;;;;35.80;35.60;;;;;;;;5235819;28;8798;-69
2022/04/09 00:59:06;;;;;;;;;37.20;36.40;;;;;;;;5236332;28;8774;-69
2022/04/09 01:01:39;;;;;;;;;41.20;38.80;;;;;;;;5236270;28;8795;-69
2022/04/09 01:04:11;;;;;;;;;117.80;89.60;;;;;;;;5252989;28;8785;-69
2022/04/09 01:06:43;;;;;;;;;65.20;51.60;;;;;;;;5235734;28;9527;-69
2022/04/09 01:09:16;;;;;;;;;44.00;41.00;;;;;;;;5268531;28;8786;-69
2022/04/09 01:12:07;;;;;;;;;38.00;37.40;;;;;;;;5237368;28;8807;-69
2022/04/09 01:14:39;;;;;;;;;56.60;48.00;;;;;;;;5235670;28;9010;-71
2022/04/09 01:17:11;;;;;;;;;43.80;40.80;;;;;;;;5251877;28;8783;-71
2022/04/09 01:19:42;;;;;;;;;49.20;43.20;;;;;;;;5252356;28;8766;-71
2022/04/09 01:22:14;;;;;;;;;42.40;39.00;;;;;;;;5252386;28;9635;-70
2022/04/09 01:24:45;;;;;;;;;41.80;38.60;;;;;;;;5235691;28;8832;-70
2022/04/09 01:27:16;;;;;;;;;26.00;24.20;;;;;;;;5224038;28;8791;-69
2022/04/09 01:29:48;;;;;;;;;29.00;27.40;;;;;;;;5268427;28;8866;-69
2022/04/09 01:32:19;;;;;;;;;30.80;30.20;;;;;;;;5247274;28;8807;-71
2022/04/09 01:34:52;;;;;;;;;95.00;87.75;;;;;;;;5264392;28;9555;-70
2022/04/09 01:37:23;;;;;;;;;31.60;30.60;;;;;;;;5266403;28;8794;-68
2022/04/09 01:39:54;;;;;;;;;32.60;32.40;;;;;;;;5267778;28;8787;-69
2022/04/09 01:42:26;;;;;;;;;32.40;31.40;;;;;;;;5234999;28;8913;-69
2022/04/09 01:45:00;;;;;;;;;41.40;35.80;;;;;;;;5234726;28;8806;-68
2022/04/09 01:47:34;;;;;;;;;32.20;31.00;;;;;;;;5235152;28;8798;-68
2022/04/09 01:50:05;;;;;;;;;49.20;43.40;;;;;;;;5251149;28;8857;-68
2022/04/09 01:52:36;;;;;;;;;28.20;27.20;;;;;;;;5251374;28;8770;-68
2022/04/09 01:55:08;;;;;;;;;32.80;30.60;;;;;;;;5229106;28;8818;-68
2022/04/09 01:57:42;;;;;;;;;29.80;29.80;;;;;;;;5248394;28;8830;-69
2022/04/09 02:00:15;;;;;;;;;32.40;31.60;;;;;;;;5232573;28;9542;-67
2022/04/09 02:02:49;;;;;;;;;29.40;29.20;;;;;;;;5234562;28;8802;-68
2022/04/09 02:05:22;;;;;;;;;30.20;29.80;;;;;;;;5267352;28;8794;-68
2022/04/09 02:07:54;;;;;;;;;23.60;23.60;;;;;;;;5250730;28;8770;-68
2022/04/09 02:10:27;;;;;;;;;28.40;27.80;;;;;;;;5268749;28;8829;-68
2022/04/09 02:13:01;;;;;;;;;28.60;28.00;;;;;;;;5251733;28;8763;-68
2022/04/09 02:15:50;;;;;;;;;30.00;26.60;;;;;;;;5253956;28;8802;-68
2022/04/09 02:18:32;;;;;;;;;33.60;32.40;;;;;;;;5253150;28;8778;-68
2022/04/09 02:21:03;;;;;;;;;39.40;36.60;;;;;;;;5234325;28;8791;-68
2022/04/09 02:23:53;;;;;;;;;36.60;36.60;;;;;;;;5250655;28;9547;-67
2022/04/09 02:26:24;;;;;;;;;42.40;40.00;;;;;;;;5217982;28;8802;-68
2022/04/09 02:28:56;;;;;;;;;40.60;39.00;;;;;;;;5246794;28;8797;-68
2022/04/09 02:31:28;;;;;;;;;37.40;36.60;;;;;;;;5231438;28;8781;-70
2022/04/09 02:34:03;;;;;;;;;35.20;32.40;;;;;;;;5232526;28;8784;-70
2022/04/09 02:36:37;;;;;;;;;38.00;36.60;;;;;;;;5236770;28;8999;-70
2022/04/09 02:39:08;;;;;;;;;45.20;41.00;;;;;;;;5237247;28;8771;-70
2022/04/09 02:41:39;;;;;;;;;46.00;42.20;;;;;;;;5250819;28;8793;-69
2022/04/09 02:44:11;;;;;;;;;48.00;42.40;;;;;;;;5250648;28;8791;-68
2022/04/09 02:46:44;;;;;;;;;50.40;44.00;;;;;;;;5229363;28;8974;-69
2022/04/09 02:49:33;;;;;;;;;52.20;44.80;;;;;;;;5229853;28;8784;-69
2022/04/09 02:52:07;;;;;;;;;55.60;47.80;;;;;;;;5246862;28;8872;-70
2022/04/09 02:54:39;;;;;;;;;55.80;47.60;;;;;;;;5213479;28;8798;-70
2022/04/09 02:57:10;;;;;;;;;62.00;50.40;;;;;;;;5229700;28;8860;-70
2022/04/09 02:59:47;;;;;;;;;64.60;52.40;;;;;;;;5230455;28;8764;-70
2022/04/09 03:02:19;;;;;;;;;61.40;51.40;;;;;;;;5246788;28;8779;-70
2022/04/09 03:04:52;;;;;;;;;55.80;48.00;;;;;;;;5250408;28;8786;-70
2022/04/09 03:07:23;;;;;;;;;50.80;42.80;;;;;;;;5234030;28;8778;-71
2022/04/09 03:09:55;;;;;;;;;50.40;42.20;;;;;;;;5233825;28;9501;-72
2022/04/09 03:12:26;;;;;;;;;45.20;40.60;;;;;;;;5234230;28;8809;-69
2022/04/09 03:14:58;;;;;;;;;40.80;38.80;;;;;;;;5250843;28;8957;-69
2022/04/09 03:17:29;;;;;;;;;34.60;34.40;;;;;;;;5250685;28;8812;-70
2022/04/09 03:20:20;;;;;;;;;28.80;28.60;;;;;;;;5252490;28;8929;-70
2022/04/09 03:22:53;;;;;;;;;32.40;32.40;;;;;;;;5233311;28;8786;-69
2022/04/09 03:25:43;;;;;;;;;35.00;35.00;;;;;;;;5235732;28;8799;-69
2022/04/09 03:28:17;;;;;;;;;31.40;29.80;;;;;;;;5216938;28;9484;-69
2022/04/09 03:30:49;;;;;;;;;33.60;32.40;;;;;;;;5216787;28;8767;-70
2022/04/09 03:33:22;;;;;;;;;32.80;32.20;;;;;;;;5232817;28;8913;-71
2022/04/09 03:36:01;;;;;;;;;72.20;58.80;;;;;;;;5250186;28;8818;-71
2022/04/09 03:38:51;;;;;;;;;49.40;43.20;;;;;;;;5252357;28;8798;-71
2022/04/09 03:41:25;;;;;;;;;39.60;37.20;;;;;;;;5250199;28;8775;-71
2022/04/09 03:44:03;;;;;;;;;27.40;27.00;;;;;;;;5245446;28;8862;-71
2022/04/09 03:46:40;;;;;;;;;31.80;31.60;;;;;;;;5245520;28;8780;-70
2022/04/09 03:49:20;;;;;;;;;21.00;21.00;;;;;;;;5244441;28;8764;-71
2022/04/09 03:51:52;;;;;;;;;17.20;17.00;;;;;;;;5228879;28;8760;-71
2022/04/09 03:54:42;;;;;;;;;22.00;22.00;;;;;;;;5260252;28;8792;-70
2022/04/09 03:57:15;;;;;;;;;18.80;18.80;;;;;;;;5245515;28;8901;-70
2022/04/09 03:59:55;;;;;;;;;17.40;17.40;;;;;;;;5244298;28;8855;-70
2022/04/09 04:02:27;;;;;;;;;16.40;15.80;;;;;;;;5234229;28;8921;-70
2022/04/09 04:05:03;;;;;;;;;19.40;18.60;;;;;;;;5233465;28;8786;-72
2022/04/09 04:07:36;;;;;;;;;14.40;14.40;;;;;;;;5216568;28;8779;-72
2022/04/09 04:10:10;;;;;;;;;17.00;17.00;;;;;;;;5216620;28;8787;-70
2022/04/09 04:12:44;;;;;;;;;18.40;18.20;;;;;;;;5249632;28;8771;-70
2022/04/09 04:15:16;;;;;;;;;16.40;16.40;;;;;;;;5216320;28;8826;-69
2022/04/09 04:17:51;;;;;;;;;13.80;13.80;;;;;;;;5232794;28;8798;-69
2022/04/09 04:20:28;;;;;;;;;14.80;14.60;;;;;;;;5216751;28;8770;-69
2022/04/09 04:23:03;;;;;;;;;18.00;18.00;;;;;;;;5249694;28;8777;-68
2022/04/09 04:25:36;;;;;;;;;23.20;22.00;;;;;;;;5249947;28;8794;-70
2022/04/09 04:28:08;;;;;;;;;13.00;12.60;;;;;;;;5233087;28;8912;-69
2022/04/09 04:30:40;;;;;;;;;17.40;17.00;;;;;;;;5232398;28;8778;-69
2022/04/09 04:33:13;;;;;;;;;18.00;18.00;;;;;;;;5248919;28;8789;-69
2022/04/09 04:35:50;;;;;;;;;19.00;19.00;;;;;;;;5267159;28;8791;-69
2022/04/09 04:38:23;;;;;;;;;18.00;17.80;;;;;;;;5232472;28;8779;-69
2022/04/09 04:41:13;;;;;;;;;18.20;18.20;;;;;;;;5249074;28;8813;-69
2022/04/09 04:43:51;;;;;;;;;19.00;19.00;;;;;;;;5232489;28;8779;-69
2022/04/09 04:46:41;;;;;;;;;14.00;14.00;;;;;;;;5234779;28;8790;-72
2022/04/09 04:49:17;;;;;;;;;18.00;18.00;;;;;;;;5216660;28;8763;-72
2022/04/09 04:51:50;;;;;;;;;20.20;20.20;;;;;;;;5249161;28;8790;-72
2022/04/09 04:54:23;;;;;;;;;14.80;14.80;;;;;;;;5249907;28;8779;-73
2022/04/09 04:56:54;;;;;;;;;17.00;17.00;;;;;;;;5266976;28;8814;-72
2022/04/09 04:59:26;;;;;;;;;14.80;14.80;;;;;;;;5248870;28;8791;-72
2022/04/09 05:01:57;;;;;;;;;17.40;17.40;;;;;;;;5215525;28;9024;-72
2022/04/09 05:04:29;;;;;;;;;20.00;20.00;;;;;;;;5232116;28;9544;-71
2022/04/09 05:07:19;;;;;;;;;17.20;17.20;;;;;;;;5251601;28;8783;-72
2022/04/09 05:09:51;;;;;;;;;20.60;20.40;;;;;;;;5224250;28;9549;-69
2022/04/09 05:12:22;;;;;;;;;18.60;18.60;;;;;;;;5214588;28;8768;-68
2022/04/09 05:14:54;;;;;;;;;69.80;56.40;;;;;;;;5223303;28;8802;-71
2022/04/09 05:17:25;;;;;;;;;21.40;21.20;;;;;;;;5236688;28;8863;-71
2022/04/09 05:19:57;;;;;;;;;16.60;16.60;;;;;;;;5247584;28;8782;-70
2022/04/09 05:22:28;;;;;;;;;19.40;19.00;;;;;;;;5214895;28;8774;-69
2022/04/09 05:25:09;;;;;;;;;15.60;15.60;;;;;;;;5214983;28;8774;-69
2022/04/09 05:27:45;;;;;;;;;14.60;14.20;;;;;;;;5231167;28;8782;-69
2022/04/09 05:30:27;;;;;;;;;13.40;13.40;;;;;;;;5232230;28;9552;-69
2022/04/09 05:32:59;;;;;;;;;15.40;15.40;;;;;;;;5250189;28;9633;-69
2022/04/09 05:35:49;;;;;;;;;18.40;18.20;;;;;;;;5231978;28;8817;-69
2022/04/09 05:38:21;;;;;;;;;13.20;13.20;;;;;;;;5229834;28;8796;-70
2022/04/09 05:41:11;;;;;;;;;15.60;15.60;;;;;;;;5231705;28;8777;-69
2022/04/09 05:43:43;;;;;;;;;14.40;14.40;;;;;;;;5212982;28;8834;-70
2022/04/09 05:46:14;;;;;;;;;14.00;14.00;;;;;;;;5229240;28;8793;-69
2022/04/09 05:48:45;;;;;;;;;16.80;16.80;;;;;;;;5204720;28;8838;-70
2022/04/09 05:51:17;;;;;;;;;19.00;18.60;;;;;;;;5216635;28;8770;-69
2022/04/09 05:54:06;;;;;;;;;15.20;15.20;;;;;;;;5228597;28;8968;-69
2022/04/09 05:56:41;;;;;;;;;12.60;11.80;;;;;;;;5217927;28;9548;-69
2022/04/09 05:59:12;;;;;;;;;14.00;14.00;;;;;;;;5248675;28;8861;-69
2022/04/09 06:01:44;;;;;;;;;18.80;18.20;;;;;;;;5251527;28;8820;-70
2022/04/09 06:04:19;;;;;;;;;24.00;23.60;;;;;;;;5251635;28;8814;-69
2022/04/09 06:06:52;;;;;;;;;23.20;22.60;;;;;;;;5234667;28;9505;-69
2022/04/09 06:09:27;;;;;;;;;16.60;16.60;;;;;;;;5248813;28;8855;-69
2022/04/09 06:12:07;;;;;;;;;14.40;14.00;;;;;;;;5221661;28;8806;-69
2022/04/09 06:14:53;;;;;;;;;12.20;12.00;;;;;;;;5236760;28;8917;-69
2022/04/09 06:17:26;;;;;;;;;14.60;14.60;;;;;;;;5267100;28;8920;-69
2022/04/09 06:19:58;;;;;;;;;13.60;13.20;;;;;;;;5250769;28;8925;-69
2022/04/09 06:22:29;;;;;;;;;12.00;12.00;;;;;;;;5233754;28;8905;-69
2022/04/09 06:25:00;;;;;;;;;12.60;11.80;;;;;;;;5217819;28;8789;-70
2022/04/09 06:27:37;;;;;;;;;12.20;12.20;;;;;;;;5250652;28;8798;-69
2022/04/09 06:30:09;;;;;;;;;7.60;7.60;;;;;;;;5234680;28;8763;-69
2022/04/09 06:32:42;;;;;;;;;11.60;11.60;;;;;;;;5213315;28;8800;-69
2022/04/09 06:35:14;;;;;;;;;15.40;15.40;;;;;;;;5247715;28;8809;-69
2022/04/09 06:37:46;;;;;;;;;10.40;10.40;;;;;;;;5197168;28;8804;-69
2022/04/09 06:40:19;;;;;;;;;21.40;20.60;;;;;;;;5213563;28;9555;-69
2022/04/09 06:42:50;;;;;;;;;17.00;17.00;;;;;;;;5213317;28;8789;-69
2022/04/09 06:45:40;;;;;;;;;16.20;16.20;;;;;;;;5221184;28;9581;-69
2022/04/09 06:48:27;;;;;;;;;14.80;14.80;;;;;;;;5219620;28;8949;-69
2022/04/09 06:51:16;;;;;;;;;18.00;18.00;;;;;;;;5229308;28;8853;-69
2022/04/09 06:53:48;;;;;;;;;20.00;20.00;;;;;;;;5226001;28;8786;-69
2022/04/09 06:56:19;;;;;;;;;20.00;20.00;;;;;;;;5217113;28;8807;-69
2022/04/09 06:58:51;;;;;;;;;31.60;30.60;;;;;;;;5250157;28;8972;-69
2022/04/09 07:01:22;;;;;;;;;16.00;16.00;;;;;;;;5233807;28;8778;-69
2022/04/09 07:03:54;;;;;;;;;23.00;23.00;;;;;;;;5217402;28;8824;-69
2022/04/09 07:06:25;;;;;;;;;13.00;13.00;;;;;;;;5250383;28;8790;-69
2022/04/09 07:09:15;;;;;;;;;14.50;14.50;;;;;;;;5249725;28;8811;-69
2022/04/09 07:11:47;;;;;;;;;9.75;9.75;;;;;;;;5233229;28;11414;-71
2022/04/09 07:14:36;;;;;;;;;9.00;9.00;;;;;;;;5252902;28;8940;-69
2022/04/09 07:17:07;;;;;;;;;9.50;9.50;;;;;;;;5249625;28;9582;-69
2022/04/09 07:19:39;;;;;;;;;5.00;5.00;;;;;;;;5249246;28;8770;-70
2022/04/09 07:22:11;;;;;;;;;11.50;11.50;;;;;;;;5249668;28;8770;-70
2022/04/09 07:24:42;;;;;;;;;8.00;8.00;;;;;;;;5249767;28;8788;-70
2022/04/09 07:27:13;;;;;;;;;10.50;10.50;;;;;;;;5233425;28;8759;-70
2022/04/09 07:29:44;;;;;;;;;13.00;13.00;;;;;;;;5233191;28;8768;-70
2022/04/09 07:32:34;;;;;;;;;11.25;11.25;;;;;;;;5235702;28;8768;-69
2022/04/09 07:35:05;;;;;;;;;9.75;9.75;;;;;;;;5216261;28;8810;-69
2022/04/09 07:37:41;;;;;;;;;22.00;20.75;;;;;;;;5267670;28;8772;-68
2022/04/09 07:40:13;;;;;;;;;24.00;24.00;;;;;;;;5216525;28;8899;-69
2022/04/09 07:42:45;;;;;;;;;19.20;19.00;;;;;;;;5232757;28;8837;-69
2022/04/09 07:45:16;;;;;;;;;12.00;12.00;;;;;;;;5232431;28;8796;-69
2022/04/09 07:47:52;;;;;;;;;14.50;14.50;;;;;;;;5249141;28;8810;-68
2022/04/09 07:50:25;;;;;;;;;12.75;12.75;;;;;;;;5249172;28;8817;-67
2022/04/09 07:52:57;;;;;;;;;19.00;18.80;;;;;;;;5248243;28;8876;-67
2022/04/09 07:55:28;;;;;;;;;12.00;12.00;;;;;;;;5228407;28;9577;-67
2022/04/09 07:58:17;;;;;;;;;10.50;10.50;;;;;;;;5237806;28;8799;-67
2022/04/09 08:00:51;;;;;;;;;13.00;13.00;;;;;;;;5267204;28;9660;-67
2022/04/09 08:03:40;;;;;;;;;10.50;10.50;;;;;;;;5251334;28;8812;-67
2022/04/09 08:06:11;;;;;;;;;10.75;10.75;;;;;;;;5232454;28;8774;-67
2022/04/09 08:08:42;;;;;;;;;11.50;11.50;;;;;;;;5265923;28;8790;-67
2022/04/09 08:11:13;;;;;;;;;7.00;7.00;;;;;;;;5248825;28;8875;-67
2022/04/09 08:13:44;;;;;;;;;5.00;5.00;;;;;;;;5248901;28;8790;-67
2022/04/09 08:16:15;;;;;;;;;6.00;6.00;;;;;;;;5249098;28;10050;-65
2022/04/09 08:18:46;;;;;;;;;7.75;7.75;;;;;;;;5246527;28;8916;-67
2022/04/09 08:21:18;;;;;;;;;5.75;5.75;;;;;;;;5230573;28;8798;-67
2022/04/09 08:23:49;;;;;;;;;6.50;6.50;;;;;;;;5226262;28;8838;-66
2022/04/09 08:26:38;;;;;;;;;5.00;4.75;;;;;;;;5212425;28;8789;-67
2022/04/09 08:29:10;;;;;;;;;10.50;10.50;;;;;;;;5219447;28;8811;-68
2022/04/09 08:31:41;;;;;;;;;7.75;7.75;;;;;;;;5230460;28;8912;-67
2022/04/09 08:34:12;;;;;;;;;9.00;8.00;;;;;;;;5230654;28;8929;-68
2022/04/09 08:36:43;;;;;;;;;6.00;6.00;;;;;;;;5246847;28;9771;-67
2022/04/09 08:39:14;;;;;;;;;7.00;7.00;;;;;;;;5213660;28;9357;-68
2022/04/09 08:41:45;;;;;;;;;6.75;6.75;;;;;;;;5230422;28;8909;-68
2022/04/09 08:44:17;;;;;;;;;9.50;9.50;;;;;;;;5229691;28;8834;-67
2022/04/09 08:46:48;;;;;;;;;9.00;9.00;;;;;;;;5249603;28;8802;-68
2022/04/09 08:49:20;;;;;;;;;7.00;7.00;;;;;;;;5268643;28;8825;-68
2022/04/09 08:51:51;;;;;;;;;9.00;9.00;;;;;;;;5218241;28;8778;-68
2022/04/09 08:54:23;;;;;;;;;8.00;7.75;;;;;;;;5217755;28;9698;-67
2022/04/09 08:57:12;;;;;;;;;9.75;9.75;;;;;;;;5268448;28;8831;-66
2022/04/09 08:59:43;;;;;;;;;5.33;5.33;;;;;;;;5234288;28;9582;-66
2022/04/09 09:02:37;;;;;;;;;7.25;7.25;;;;;;;;5268029;28;10014;-66
2022/04/09 09:05:26;;;;;;;;;8.50;8.50;;;;;;;;5234284;28;8862;-67
2022/04/09 09:07:57;;;;;;;;;8.50;8.50;;;;;;;;5217546;28;8913;-66
2022/04/09 09:10:28;;;;;;;;;10.50;10.00;;;;;;;;5250365;28;8787;-66
2022/04/09 09:13:01;;;;;;;;;8.75;8.75;;;;;;;;5217714;28;8786;-66
2022/04/09 09:15:55;;;;;;;;;7.75;7.75;;;;;;;;5236625;28;8844;-66
2022/04/09 09:18:27;;;;;;;;;8.75;8.75;;;;;;;;5233856;28;8794;-66
2022/04/09 09:21:00;;;;;;;;;9.50;9.50;;;;;;;;5217175;28;8959;-66
2022/04/09 09:23:32;;;;;;;;;8.00;8.00;;;;;;;;5234067;28;8932;-65
2022/04/09 09:26:04;;;;;;;;;10.00;10.00;;;;;;;;5250473;28;8794;-66
2022/04/09 09:28:35;;;;;;;;;9.50;9.50;;;;;;;;5250186;28;8833;-66
2022/04/09 09:31:06;;;;;;;;;7.75;7.75;;;;;;;;5265766;28;8815;-66
2022/04/09 09:33:37;;;;;;;;;6.33;6.33;;;;;;;;5250202;28;9525;-66
2022/04/09 09:36:33;;;;;;;;;8.00;8.00;;;;;;;;5236255;28;11473;-67
2022/04/09 09:39:04;;;;;;;;;6.75;6.75;;;;;;;;5233559;28;8767;-66
2022/04/09 09:41:45;;;;;;;;;9.00;9.00;;;;;;;;5211840;28;9565;-68
2022/04/09 09:44:42;;;;;;;;;8.00;8.00;;;;;;;;5247400;28;8769;-67
2022/04/09 09:47:33;;;;;;;;;5.75;5.75;;;;;;;;5246038;28;8820;-68
2022/04/09 09:50:05;;;;;;;;;9.75;9.75;;;;;;;;5247297;28;8777;-68
2022/04/09 09:52:36;;;;;;;;;9.00;9.00;;;;;;;;5249904;28;8937;-67
2022/04/09 09:55:13;;;;;;;;;7.00;7.00;;;;;;;;5249649;28;8913;-67
2022/04/09 09:57:48;;;;;;;;;7.50;7.50;;;;;;;;5232006;28;8956;-67
2022/04/09 10:00:19;;;;;;;;;5.00;5.00;;;;;;;;5216552;28;8774;-67
2022/04/09 10:02:50;;;;;;;;;16.00;16.00;;;;;;;;5267863;28;8794;-67
2022/04/09 10:05:40;;;;;;;;;7.50;7.50;;;;;;;;5247660;28;9303;-67
2022/04/09 10:08:11;;;;;;;;;14.75;14.75;;;;;;;;5232825;28;8782;-67
2022/04/09 10:10:50;;;;;;;;;15.00;15.00;;;;;;;;5250906;28;9505;-67
2022/04/09 10:13:23;;;;;;;;;14.25;14.25;;;;;;;;5218546;28;8771;-66
2022/04/09 10:15:55;;;;;;;;;12.00;12.00;;;;;;;;5268844;28;8845;-66
2022/04/09 10:18:47;;;;;;;;;16.00;16.00;;;;;;;;5253133;28;8871;-66
2022/04/09 10:21:18;;;;;;;;;16.00;16.00;;;;;;;;5234605;28;8792;-66
2022/04/09 10:23:52;;;;;;;;;12.00;12.00;;;;;;;;5251505;28;8911;-66
2022/04/09 10:26:23;;;;;;;;;6.00;6.00;;;;;;;;5248792;28;8874;-67
2022/04/09 10:29:08;;;;;;;;;8.25;8.25;;;;;;;;5251214;28;8863;-66
2022/04/09 10:31:40;;;;;;;;;15.50;15.50;;;;;;;;5217268;28;9489;-66
2022/04/09 10:34:11;;;;;;;;;11.00;11.00;;;;;;;;5250926;28;8786;-67
2022/04/09 10:36:45;;;;;;;;;10.50;10.50;;;;;;;;5234201;28;8796;-67
2022/04/09 10:39:25;;;;;;;;;10.00;10.00;;;;;;;;5268902;28;8784;-67
2022/04/09 10:41:57;;;;;;;;;10.00;10.00;;;;;;;;5234265;28;8918;-67
2022/04/09 10:44:43;;;;;;;;;8.25;8.25;;;;;;;;5234159;28;8768;-67
2022/04/09 10:47:15;;;;;;;;;1.00;1.00;;;;;;;;5217791;28;8796;-67
2022/04/09 10:50:01;;;;;;;;;9.75;9.75;;;;;;;;5246077;28;8785;-67
2022/04/09 10:52:32;;;;;;;;;9.00;9.00;;;;;;;;5247652;28;8761;-66
2022/04/09 10:55:04;;;;;;;;;7.50;7.50;;;;;;;;5197519;28;9511;-66
2022/04/09 10:57:43;;;;;;;;;8.67;8.67;;;;;;;;5212982;28;8819;-66
2022/04/09 11:00:23;;;;;;;;;7.75;7.75;;;;;;;;5213330;28;11387;-66
2022/04/09 11:03:03;;;;;;;;;9.25;9.25;;;;;;;;5196692;28;8837;-66
2022/04/09 11:05:34;;;;;;;;;9.00;9.00;;;;;;;;5229743;28;8781;-66
2022/04/09 11:08:23;;;;;;;;;10.75;10.75;;;;;;;;5231915;28;8789;-65
2022/04/09 11:10:54;;;;;;;;;8.50;8.50;;;;;;;;5230644;28;8862;-66
2022/04/09 11:13:29;;;;;;;;;9.25;9.25;;;;;;;;5250563;28;8783;-65
2022/04/09 11:16:01;;;;;;;;;8.50;7.00;;;;;;;;5233470;28;8815;-65
2022/04/09 11:18:40;;;;;;;;;7.50;7.25;;;;;;;;5233349;28;9547;-65
2022/04/09 11:21:12;;;;;;;;;9.00;8.25;;;;;;;;5249657;28;8816;-65
2022/04/09 11:23:43;;;;;;;;;10.00;10.00;;;;;;;;5233284;28;8810;-65
2022/04/09 11:26:17;;;;;;;;;10.00;10.00;;;;;;;;5229920;28;8797;-66
2022/04/09 11:28:48;;;;;;;;;10.75;10.75;;;;;;;;5212611;28;8796;-66
2022/04/09 11:31:21;;;;;;;;;8.75;8.25;;;;;;;;5232265;28;8794;-65
2022/04/09 11:33:59;;;;;;;;;9.00;9.00;;;;;;;;5216634;28;8848;-65
2022/04/09 11:36:30;;;;;;;;;10.75;10.75;;;;;;;;5233512;28;8828;-65
2022/04/09 11:39:01;;;;;;;;;7.75;7.75;;;;;;;;5267565;28;8758;-65
2022/04/09 11:41:32;;;;;;;;;20.50;20.50;;;;;;;;5244841;28;9628;-65
2022/04/09 11:44:03;;;;;;;;;26.00;25.80;;;;;;;;5212255;28;9511;-66
2022/04/09 11:46:44;;;;;;;;;19.50;19.50;;;;;;;;5211983;28;8805;-66
2022/04/09 11:49:15;;;;;;;;;14.00;14.00;;;;;;;;5228965;28;8777;-66
2022/04/09 11:51:53;;;;;;;;;12.25;12.25;;;;;;;;5212278;28;8768;-66
2022/04/09 11:54:26;;;;;;;;;21.00;21.00;;;;;;;;5244108;28;8774;-66
2022/04/09 11:56:57;;;;;;;;;12.00;11.50;;;;;;;;5248666;28;8911;-66
2022/04/09 11:59:29;;;;;;;;;10.75;10.75;;;;;;;;5267505;28;8770;-66
2022/04/09 12:02:00;;;;;;;;;12.50;12.50;;;;;;;;5232259;28;8778;-66
2022/04/09 12:04:35;;;;;;;;;12.25;12.25;;;;;;;;5267651;28;8759;-66
2022/04/09 12:07:06;;;;;;;;;13.00;13.00;;;;;;;;5215900;28;9525;-67
2022/04/09 12:09:37;;;;;;;;;13.33;13.33;;;;;;;;5232527;28;8807;-66
2022/04/09 12:12:08;;;;;;;;;11.75;11.75;;;;;;;;5249312;28;8787;-66
2022/04/09 12:14:42;;;;;;;;;16.00;16.00;;;;;;;;5248180;28;8847;-67
2022/04/09 12:17:15;;;;;;;;;17.00;16.50;;;;;;;;5215405;28;8794;-67
2022/04/09 12:19:46;;;;;;;;;16.50;16.50;;;;;;;;5226144;28;8858;-67
2022/04/09 12:22:22;;;;;;;;;14.00;13.75;;;;;;;;5231568;28;9514;-66
2022/04/09 12:24:56;;;;;;;;;12.75;12.25;;;;;;;;5228105;28;8799;-67
2022/04/09 12:27:46;;;;;;;;;14.75;14.75;;;;;;;;5240274;28;8782;-67
2022/04/09 12:30:37;;;;;;;;;14.25;14.25;;;;;;;;5248867;28;8802;-66
2022/04/09 12:33:12;;;;;;;;;13.00;13.00;;;;;;;;5232635;28;9522;-66
2022/04/09 12:35:43;;;;;;;;;14.75;14.75;;;;;;;;5232440;28;8811;-66
2022/04/09 12:38:34;;;;;;;;;14.75;14.75;;;;;;;;5267040;28;8860;-66
2022/04/09 12:41:07;;;;;;;;;11.25;11.25;;;;;;;;5232472;28;8756;-66
2022/04/09 12:43:56;;;;;;;;;16.25;15.75;;;;;;;;5250722;28;8806;-66
2022/04/09 12:46:27;;;;;;;;;11.00;11.00;;;;;;;;5220848;28;8822;-66
2022/04/09 12:49:17;;;;;;;;;13.75;13.50;;;;;;;;5265168;28;8790;-66
2022/04/09 12:51:48;;;;;;;;;13.25;13.25;;;;;;;;5210633;28;8781;-66
2022/04/09 12:54:19;;;;;;;;;12.75;12.75;;;;;;;;5227264;28;9453;-67
2022/04/09 12:56:50;;;;;;;;;15.00;15.00;;;;;;;;5243831;28;8810;-67
2022/04/09 12:59:22;;;;;;;;;12.25;12.00;;;;;;;;5243792;28;9378;-66
2022/04/09 13:01:53;;;;;;;;;10.00;10.00;;;;;;;;5231127;28;8767;-66
2022/04/09 13:04:24;;;;;;;;;15.25;15.25;;;;;;;;5230944;28;8838;-65
2022/04/09 13:06:56;;;;;;;;;6.00;6.00;;;;;;;;5248413;28;8821;-65
2022/04/09 13:09:27;;;;;;;;;13.00;13.00;;;;;;;;5247939;28;8818;-66
2022/04/09 13:11:58;;;;;;;;;11.50;11.50;;;;;;;;5247475;28;8798;-66
2022/04/09 13:14:29;;;;;;;;;12.00;12.00;;;;;;;;5231043;28;8791;-66
2022/04/09 13:16:59;;;;;;;;;12.75;12.75;;;;;;;;5247495;28;8799;-66
2022/04/09 13:19:33;;;;;;;;;43.00;36.75;;;;;;;;5246795;28;8791;-67
2022/04/09 13:22:04;;;;;;;;;18.75;18.50;;;;;;;;5242598;28;8793;-68
2022/04/09 13:24:35;;;;;;;;;15.50;15.50;;;;;;;;5257384;28;8782;-66
2022/04/09 13:27:07;;;;;;;;;19.00;19.00;;;;;;;;5247712;28;9574;-66
2022/04/09 13:30:00;;;;;;;;;20.40;20.40;;;;;;;;5250382;28;8794;-67
2022/04/09 13:32:32;;;;;;;;;21.25;21.00;;;;;;;;5232169;28;8778;-68
2022/04/09 13:35:03;;;;;;;;;18.00;17.80;;;;;;;;5234357;28;9583;-66
2022/04/09 13:37:34;;;;;;;;;20.00;19.00;;;;;;;;5230480;28;8764;-66
2022/04/09 13:40:05;;;;;;;;;26.25;26.25;;;;;;;;5233818;28;8831;-65
2022/04/09 13:42:36;;;;;;;;;32.20;31.60;;;;;;;;5251320;28;8774;-66
2022/04/09 13:45:11;;;;;;;;;30.60;28.20;;;;;;;;5269429;28;8983;-66
2022/04/09 13:47:42;;;;;;;;;27.80;27.00;;;;;;;;5270058;28;9514;-65
2022/04/09 13:50:15;;;;;;;;;55.60;44.40;;;;;;;;5251954;28;8804;-65
2022/04/09 13:52:47;;;;;;;;;53.20;44.60;;;;;;;;5251476;28;8762;-66
2022/04/09 13:55:36;;;;;;;;;42.80;38.20;;;;;;;;5236811;28;8844;-67
2022/04/09 13:58:07;;;;;;;;;42.60;38.60;;;;;;;;5246985;28;8847;-66
2022/04/09 14:00:57;;;;;;;;;34.20;33.40;;;;;;;;5247151;28;9561;-66
2022/04/09 14:03:29;;;;;;;;;29.00;28.00;;;;;;;;5246932;28;8793;-66
2022/04/09 14:06:00;;;;;;;;;22.80;22.80;;;;;;;;5246992;28;8793;-66
2022/04/09 14:08:31;;;;;;;;;22.00;22.00;;;;;;;;5230568;28;8792;-65
2022/04/09 14:11:02;;;;;;;;;24.25;23.50;;;;;;;;5230226;28;8800;-66
2022/04/09 14:13:33;;;;;;;;;27.80;27.80;;;;;;;;5247898;28;9894;-65
2022/04/09 14:16:04;;;;;;;;;20.75;20.00;;;;;;;;5248083;28;8838;-65
2022/04/09 14:18:35;;;;;;;;;19.40;19.40;;;;;;;;5247317;28;11443;-65
2022/04/09 14:21:06;;;;;;;;;56.50;47.00;;;;;;;;5245689;28;8810;-65
2022/04/09 14:23:37;;;;;;;;;27.00;27.00;;;;;;;;5247849;28;8913;-65
2022/04/09 14:26:26;;;;;;;;;21.80;21.80;;;;;;;;5248179;28;8775;-65
2022/04/09 14:28:58;;;;;;;;;20.50;20.00;;;;;;;;5247227;28;8815;-65
2022/04/09 14:31:32;;;;;;;;;22.40;22.40;;;;;;;;5246633;28;11709;-65
2022/04/09 14:34:05;;;;;;;;;20.00;20.00;;;;;;;;5230186;28;9669;-66
2022/04/09 14:36:35;;;;;;;;;14.80;14.80;;;;;;;;5230054;28;8827;-66
2022/04/09 14:39:07;;;;;;;;;12.75;12.75;;;;;;;;5246254;28;8849;-66
2022/04/09 14:41:38;;;;;;;;;9.20;8.60;;;;;;;;5246139;28;8802;-65
2022/04/09 14:44:09;;;;;;;;;10.00;10.00;;;;;;;;5247617;28;8829;-65
2022/04/09 14:46:40;;;;;;;;;8.40;8.40;;;;;;;;5247771;28;8795;-65
2022/04/09 14:49:11;;;;;;;;;16.50;15.00;;;;;;;;5246487;28;8791;-65
2022/04/09 14:51:42;;;;;;;;;32.00;32.00;;;;;;;;5229412;28;8810;-66
2022/04/09 14:54:13;;;;;;;;;19.80;19.80;;;;;;;;5228938;28;10291;-65
2022/04/09 14:56:50;;;;;;;;;21.00;21.00;;;;;;;;5229616;28;8819;-66
2022/04/09 14:59:21;;;;;;;;;24.20;24.20;;;;;;;;5217067;28;8866;-66
2022/04/09 15:01:57;;;;;;;;;23.50;23.50;;;;;;;;5266970;28;8788;-66
2022/04/09 15:04:30;;;;;;;;;28.40;28.40;;;;;;;;5217162;28;12219;-66
2022/04/09 15:07:02;;;;;;;;;23.00;23.00;;;;;;;;5232923;28;9531;-66
2022/04/09 15:09:33;;;;;;;;;16.80;16.80;;;;;;;;5233774;28;8979;-66
2022/04/09 15:12:09;;;;;;;;;17.40;17.40;;;;;;;;5233079;28;8817;-66
2022/04/09 15:14:40;;;;;;;;;16.80;16.80;;;;;;;;5233595;28;8778;-66
2022/04/09 15:17:11;;;;;;;;;17.00;17.00;;;;;;;;5232620;28;8943;-66
2022/04/09 15:19:42;;;;;;;;;15.60;15.60;;;;;;;;5231695;28;10319;-66
2022/04/09 15:22:13;;;;;;;;;12.25;12.25;;;;;;;;5251101;28;8813;-67